Time;durP1;ratioP1;P1;durP2;ratioP2;P2;SDS_P1;SDS_P2;PMS_P1;PMS_P2;Temp;Humidity;BMP_temperature;BMP_pressure;BME280_temperature;BME280_humidity;BME280_pressure;Samples;Min_cycle;Max_cycle;Signal;HPM_P1;HPM_P2
2022/09/01 00:01:40;;;;;;;9.65;6.38;;;;;;;22.34;51.55;101148.00;5046088;28;20397;-54
2022/09/01 00:04:08;;;;;;;10.27;6.22;;;;;;;22.46;51.08;101149.59;5048474;28;20017;-56
2022/09/01 00:06:37;;;;;;;13.75;6.90;;;;;;;22.30;52.39;101144.19;5050449;28;20085;-53
2022/09/01 00:09:07;;;;;;;12.88;7.18;;;;;;;22.24;52.68;101141.75;5054549;28;20025;-53
2022/09/01 00:11:35;;;;;;;12.82;7.10;;;;;;;21.77;53.23;101135.53;5052479;28;20100;-54
2022/09/01 00:14:02;;;;;;;12.57;6.90;;;;;;;21.99;52.98;101129.78;5052652;28;20025;-55
2022/09/01 00:16:29;;;;;;;13.00;6.47;;;;;;;22.02;53.01;101131.94;5053135;28;20056;-55
2022/09/01 00:18:56;;;;;;;10.52;6.88;;;;;;;21.77;53.81;101132.81;5052973;28;20032;-55
2022/09/01 00:21:29;;;;;;;12.20;7.10;;;;;;;21.53;54.58;101137.16;5053139;28;20024;-54
2022/09/01 00:23:56;;;;;;;10.65;7.00;;;;;;;21.47;54.97;101125.44;5051730;28;20486;-55
2022/09/01 00:26:22;;;;;;;12.43;6.72;;;;;;;21.49;54.88;101144.25;5040636;28;20064;-55
2022/09/01 00:28:49;;;;;;;14.02;7.25;;;;;;;21.36;55.20;101129.25;5032483;28;20467;-55
2022/09/01 00:31:18;;;;;;;14.85;7.20;;;;;;;21.43;55.67;101128.97;5032850;28;20029;-54
2022/09/01 00:33:45;;;;;;;14.10;7.63;;;;;;;21.61;55.15;101136.63;5036034;28;20052;-54
2022/09/01 00:36:11;;;;;;;27.75;7.65;;;;;;;21.35;54.81;101139.31;5036027;28;20367;-54
2022/09/01 00:38:39;;;;;;;18.75;7.50;;;;;;;21.07;56.45;101128.91;5040878;28;20471;-56
2022/09/01 00:41:06;;;;;;;11.07;6.70;;;;;;;21.10;56.45;101128.38;5041590;28;20029;-55
2022/09/01 00:43:43;;;;;;;12.95;7.43;;;;;;;20.88;57.41;101125.88;5045207;28;20025;-55
2022/09/01 00:46:15;;;;;;;19.38;7.20;;;;;;;21.01;56.83;101129.97;5050710;28;20037;-55
2022/09/01 00:48:42;;;;;;;13.90;7.25;;;;;;;20.61;57.38;101117.88;5035156;28;20476;-55
2022/09/01 00:51:11;;;;;;;10.27;6.78;;;;;;;20.54;58.90;101136.31;5031984;28;20021;-55
2022/09/01 00:53:40;;;;;;;15.23;7.88;;;;;;;20.60;58.19;101129.00;5043526;28;20064;-55
2022/09/01 00:56:08;;;;;;;10.07;6.82;;;;;;;20.78;57.97;101136.72;5048725;28;20471;-54
2022/09/01 00:58:37;;;;;;;11.70;7.30;;;;;;;20.67;57.81;101135.84;5043213;28;20087;-54
2022/09/01 01:01:06;;;;;;;13.60;6.88;;;;;;;20.51;58.69;101143.13;5031534;28;20037;-54
2022/09/01 01:03:33;;;;;;;12.38;6.43;;;;;;;20.45;58.81;101132.47;5031548;28;20026;-55
2022/09/01 01:06:06;;;;;;;16.08;7.68;;;;;;;20.09;60.40;101129.53;5031436;28;20531;-54
2022/09/01 01:08:36;;;;;;;10.80;6.53;;;;;;;20.03;60.29;101133.31;5031940;28;20035;-53
2022/09/01 01:11:06;;;;;;;15.25;7.75;;;;;;;20.23;61.20;101132.63;5034791;28;20041;-54
2022/09/01 01:13:55;;;;;;;13.50;7.68;;;;;;;20.34;59.49;101136.22;5031480;28;20112;-54
2022/09/01 01:16:23;;;;;;;10.95;6.72;;;;;;;19.96;60.14;101124.56;5031644;28;20398;-53
2022/09/01 01:18:50;;;;;;;10.93;6.85;;;;;;;19.69;61.13;101124.63;5031498;28;20522;-52
2022/09/01 01:24:21;;;;;;;11.80;7.22;;;;;;;19.70;60.15;101121.66;5038264;28;20052;-52
2022/09/01 01:26:48;;;;;;;12.85;6.60;;;;;;;20.00;59.47;101122.97;5051530;28;20037;-53
2022/09/01 01:29:16;;;;;;;10.38;7.47;;;;;;;19.96;58.98;101114.50;5039039;28;20045;-51
2022/09/01 01:31:43;;;;;;;11.70;6.55;;;;;;;20.09;58.93;101117.84;5043598;28;20364;-52
2022/09/01 01:34:09;;;;;;;8.43;6.43;;;;;;;19.84;59.72;101113.09;5039530;28;20802;-53
2022/09/01 01:36:38;;;;;;;9.57;6.63;;;;;;;19.92;59.10;101107.16;5043062;28;20033;-53
2022/09/01 01:39:14;;;;;;;10.93;6.80;;;;;;;19.73;58.54;101104.03;5049546;28;20036;-54
2022/09/01 01:41:47;;;;;;;12.73;6.55;;;;;;;19.63;58.10;101102.06;5042018;28;20116;-53
2022/09/01 01:44:16;;;;;;;13.07;6.63;;;;;;;19.78;59.08;101101.38;5034167;28;20021;-53
2022/09/01 01:46:46;;;;;;;11.00;7.05;;;;;;;19.85;58.75;101099.22;5030531;28;20602;-55
2022/09/01 01:49:18;;;;;;;8.82;6.40;;;;;;;19.98;58.69;101095.22;5038926;28;20414;-53
2022/09/01 01:51:46;;;;;;;10.23;5.75;;;;;;;19.85;58.59;101095.69;5048234;28;20043;-53
2022/09/01 01:54:14;;;;;;;8.23;5.95;;;;;;;19.85;58.66;101096.50;5029790;28;20052;-53
2022/09/01 01:56:40;;;;;;;12.05;6.57;;;;;;;19.74;58.81;101102.94;5031394;28;20026;-53
2022/09/01 01:59:10;;;;;;;12.68;6.55;;;;;;;19.70;59.20;101091.78;5031175;28;20029;-53
2022/09/01 02:01:38;;;;;;;13.98;6.68;;;;;;;19.75;58.27;101091.81;5031346;28;20030;-53
2022/09/01 02:04:04;;;;;;;10.88;6.32;;;;;;;19.94;58.13;101099.56;5031055;28;20197;-52
2022/09/01 02:06:33;;;;;;;10.55;6.60;;;;;;;19.92;58.11;101090.84;5030953;28;20484;-53
2022/09/01 02:09:02;;;;;;;9.80;6.22;;;;;;;19.90;58.03;101101.16;5031379;28;20029;-53
2022/09/01 02:11:32;;;;;;;8.88;6.10;;;;;;;19.85;58.10;101095.69;5028667;28;20033;-52
2022/09/01 02:13:59;;;;;;;11.38;6.47;;;;;;;19.76;58.22;101092.63;5030563;28;20091;-52
2022/09/01 02:16:30;;;;;;;10.38;5.85;;;;;;;19.76;58.57;101101.59;5033127;28;20083;-53
2022/09/01 02:18:56;;;;;;;10.40;6.03;;;;;;;19.67;58.57;101095.03;5035171;28;20033;-52
2022/09/01 02:21:25;;;;;;;10.18;6.10;;;;;;;19.51;58.53;101098.69;5034650;28;20028;-52
2022/09/01 02:24:01;;;;;;;10.10;6.78;;;;;;;19.48;58.73;101105.44;5034472;28;20059;-54
2022/09/01 02:26:31;;;;;;;9.95;6.47;;;;;;;19.41;59.37;101095.88;5035063;28;20017;-52
2022/09/01 02:29:03;;;;;;;10.35;6.63;;;;;;;19.34;59.30;101098.81;5034662;28;20072;-53
2022/09/01 02:31:34;;;;;;;10.05;6.30;;;;;;;19.21;60.13;101101.91;5034459;28;20036;-53
2022/09/01 02:34:02;;;;;;;9.65;6.47;;;;;;;19.30;60.38;101096.84;5034397;28;20029;-52
2022/09/01 02:36:31;;;;;;;10.90;6.28;;;;;;;19.27;60.30;101095.50;5034626;28;20483;-53
2022/09/01 02:38:57;;;;;;;12.57;6.38;;;;;;;19.14;59.63;101093.19;5034737;28;20037;-52
2022/09/01 02:41:25;;;;;;;8.07;6.10;;;;;;;19.11;59.57;101085.56;5034550;28;20076;-52
2022/09/01 02:43:53;;;;;;;9.65;6.13;;;;;;;19.19;58.95;101088.63;5044879;28;20036;-52
2022/09/01 02:46:22;;;;;;;9.07;5.78;;;;;;;19.18;58.68;101087.00;5037851;28;20051;-48
2022/09/01 02:48:50;;;;;;;8.02;5.93;;;;;;;19.12;58.75;101090.72;5033077;28;20029;-48
2022/09/01 02:51:18;;;;;;;11.00;6.38;;;;;;;19.33;58.53;101088.22;5046024;28;20059;-49
2022/09/01 02:53:51;;;;;;;12.65;6.05;;;;;;;19.39;58.20;101092.59;5033749;28;20025;-49
2022/09/01 02:56:19;;;;;;;9.25;6.05;;;;;;;19.34;57.75;101087.94;5040152;28;20024;-53
2022/09/01 02:58:46;;;;;;;11.05;5.72;;;;;;;19.41;57.73;101090.44;5039298;28;20068;-53
2022/09/01 03:01:19;;;;;;;8.18;6.07;;;;;;;19.46;57.97;101093.19;5054201;28;20074;-53
2022/09/01 03:03:46;;;;;;;11.10;6.57;;;;;;;19.19;58.54;101090.53;5054002;28;20082;-49
2022/09/01 03:06:13;;;;;;;8.93;6.00;;;;;;;19.33;58.23;101093.66;5048570;28;20060;-53
2022/09/01 03:08:40;;;;;;;9.75;5.95;;;;;;;19.31;57.94;101096.59;5038037;28;20037;-51
2022/09/01 03:11:09;;;;;;;9.13;6.05;;;;;;;19.40;57.77;101094.25;5044967;28;20026;-50
2022/09/01 03:13:37;;;;;;;12.32;6.10;;;;;;;19.21;58.41;101100.06;5047186;28;20037;-51
2022/09/01 03:16:06;;;;;;;9.05;6.07;;;;;;;19.46;58.25;101101.34;5037398;28;20117;-48
2022/09/01 03:18:32;;;;;;;11.63;6.68;;;;;;;19.38;58.74;101099.94;5040149;28;20036;-52
2022/09/01 03:21:01;;;;;;;10.20;6.35;;;;;;;19.29;58.83;101101.47;5044954;28;20109;-51
2022/09/01 03:23:30;;;;;;;9.65;6.43;;;;;;;19.41;58.51;101104.00;5033535;28;20036;-50
2022/09/01 03:25:57;;;;;;;10.65;6.20;;;;;;;19.32;59.01;101100.13;5035423;28;20108;-51
2022/09/01 03:28:23;;;;;;;11.95;6.20;;;;;;;19.34;58.60;101106.94;5032050;28;20042;-54
2022/09/01 03:30:52;;;;;;;11.10;6.10;;;;;;;19.32;58.63;101105.56;5031819;28;20021;-49
2022/09/01 03:33:20;;;;;;;9.18;6.30;;;;;;;19.40;58.79;101113.25;5036290;28;20036;-49
2022/09/01 03:35:47;;;;;;;9.48;6.68;;;;;;;19.32;59.20;101119.97;5048706;28;20025;-49
2022/09/01 03:38:20;;;;;;;10.25;6.53;;;;;;;19.43;59.11;101116.28;5042095;28;20029;-51
2022/09/01 03:40:48;;;;;;;8.27;5.63;;;;;;;19.39;59.44;101114.31;5033539;28;20074;-49
2022/09/01 03:43:16;;;;;;;10.40;6.55;;;;;;;19.44;58.86;101117.91;5052295;28;20029;-48
2022/09/01 03:45:43;;;;;;;9.55;6.38;;;;;;;19.30;59.18;101115.84;5053507;28;20028;-50
2022/09/01 03:48:10;;;;;;;15.25;6.82;;;;;;;18.94;60.13;101127.19;5041873;28;20025;-50
2022/09/01 03:50:43;;;;;;;8.10;6.35;;;;;;;18.95;60.25;101131.53;5038619;28;20390;-49
2022/09/01 03:53:14;;;;;;;9.75;6.32;;;;;;;18.83;60.81;101135.47;5052655;28;20364;-49
2022/09/01 03:55:43;;;;;;;12.52;7.05;;;;;;;18.86;60.73;101133.03;5033498;28;20040;-52
2022/09/01 03:58:13;;;;;;;10.82;6.80;;;;;;;18.87;61.36;101136.56;5032987;28;20302;-51
2022/09/01 04:00:44;;;;;;;9.35;6.63;;;;;;;18.94;61.33;101138.03;5033006;28;20057;-49
2022/09/01 04:03:12;;;;;;;12.95;7.35;;;;;;;18.73;62.02;101131.53;5034313;28;20025;-49
2022/09/01 04:05:42;;;;;;;13.25;7.10;;;;;;;18.46;62.54;101136.88;5036512;28;20044;-50
2022/09/01 04:08:10;;;;;;;10.52;6.65;;;;;;;18.58;62.33;101147.59;5033035;28;20025;-51
2022/09/01 04:10:48;;;;;;;11.00;6.45;;;;;;;18.61;62.16;101138.97;5032665;28;20037;-50
2022/09/01 04:13:16;;;;;;;16.95;7.03;;;;;;;18.54;62.48;101132.06;5032480;28;20037;-49
2022/09/01 04:15:42;;;;;;;9.55;6.75;;;;;;;18.53;62.66;101133.97;5032802;28;20387;-49
2022/09/01 04:18:09;;;;;;;12.75;6.53;;;;;;;18.62;62.38;101128.94;5032812;28;20476;-50
2022/09/01 04:20:49;;;;;;;10.98;6.32;;;;;;;18.72;62.23;101132.63;5032787;28;20033;-49
2022/09/01 04:23:25;;;;;;;11.25;6.57;;;;;;;18.65;62.40;101129.22;5037869;28;20033;-50
2022/09/01 04:25:55;;;;;;;10.85;7.05;;;;;;;18.63;62.71;101127.84;5032722;28;20025;-49
2022/09/01 04:28:25;;;;;;;10.38;7.10;;;;;;;18.44;63.46;101130.06;5032588;28;20041;-49
2022/09/01 04:30:54;;;;;;;10.25;7.32;;;;;;;18.68;63.49;101122.53;5042310;28;20502;-49
2022/09/01 04:33:23;;;;;;;15.38;7.53;;;;;;;18.70;63.13;101117.66;5051846;28;20029;-51
2022/09/01 04:35:53;;;;;;;10.48;7.28;;;;;;;18.66;63.32;101117.34;5052574;28;20033;-51
2022/09/01 04:38:21;;;;;;;13.95;8.15;;;;;;;18.58;63.82;101117.75;5047693;28;20026;-50
2022/09/01 04:40:48;;;;;;;8.98;7.00;;;;;;;18.53;63.93;101116.88;5032461;28;20025;-50
2022/09/01 04:43:15;;;;;;;9.63;7.10;;;;;;;18.31;64.24;101117.69;5031820;28;20029;-51
2022/09/01 04:45:43;;;;;;;10.55;7.32;;;;;;;18.38;63.92;101117.53;5032063;28;20109;-52
2022/09/01 04:48:09;;;;;;;12.63;6.65;;;;;;;18.40;63.93;101107.25;5032032;28;20341;-51
2022/09/01 04:50:36;;;;;;;10.57;7.05;;;;;;;18.53;63.40;101109.56;5040643;28;20025;-49
2022/09/01 04:53:04;;;;;;;15.68;7.50;;;;;;;18.41;64.20;101111.59;5049841;28;20083;-52
2022/09/01 04:55:31;;;;;;;12.05;6.60;;;;;;;18.17;64.51;101109.09;5040015;28;20037;-51
2022/09/01 04:58:00;;;;;;;12.73;7.00;;;;;;;18.18;65.07;101110.75;5040621;28;20056;-48
2022/09/01 05:00:31;;;;;;;12.20;7.53;;;;;;;18.32;64.89;101104.94;5035381;28;20032;-48
2022/09/01 05:03:04;;;;;;;9.73;7.10;;;;;;;18.04;65.75;101101.31;5051590;28;20473;-48
2022/09/01 05:05:43;;;;;;;12.68;6.60;;;;;;;18.15;65.28;101105.81;5046291;28;20030;-48
2022/09/01 05:08:13;;;;;;;10.73;6.97;;;;;;;18.09;65.84;101104.09;5032179;28;20032;-49
2022/09/01 05:10:45;;;;;;;14.60;7.38;;;;;;;17.99;66.17;101101.28;5038258;28;20033;-49
2022/09/01 05:13:16;;;;;;;11.75;7.28;;;;;;;18.07;66.50;101108.16;5051543;28;20605;-51
2022/09/01 05:15:47;;;;;;;13.25;7.05;;;;;;;18.06;66.65;101106.50;5050517;28;20098;-50
2022/09/01 05:18:15;;;;;;;15.63;7.60;;;;;;;17.97;67.29;101108.81;5051803;28;20085;-49
2022/09/01 05:20:42;;;;;;;11.27;7.53;;;;;;;17.89;67.12;101103.81;5051373;28;20040;-50
2022/09/01 05:23:11;;;;;;;12.85;7.28;;;;;;;17.74;67.77;101100.88;5051828;28;20025;-51
2022/09/01 05:25:43;;;;;;;12.10;7.07;;;;;;;17.58;68.62;101105.19;5050586;28;20395;-49
2022/09/01 05:28:14;;;;;;;13.60;7.50;;;;;;;17.67;68.56;101111.84;5034123;28;20048;-49
2022/09/01 05:30:41;;;;;;;12.25;7.32;;;;;;;17.85;67.61;101105.38;5030353;28;20068;-51
2022/09/01 05:33:10;;;;;;;12.38;7.30;;;;;;;17.74;68.48;101114.41;5030508;28;20131;-51
2022/09/01 05:35:42;;;;;;;12.32;7.30;;;;;;;17.61;68.46;101104.72;5030760;28;21072;-50
2022/09/01 05:38:11;;;;;;;13.45;7.45;;;;;;;17.56;68.70;101108.16;5033607;28;20543;-51
2022/09/01 05:40:43;;;;;;;13.07;7.72;;;;;;;17.67;68.20;101106.44;5030045;28;20045;-48
2022/09/01 05:43:13;;;;;;;9.90;6.55;;;;;;;17.60;68.96;101103.91;5029880;28;20032;-49
2022/09/01 05:45:44;;;;;;;14.45;7.75;;;;;;;17.57;69.04;101098.97;5028737;28;20494;-49
2022/09/01 05:48:11;;;;;;;12.60;7.13;;;;;;;17.57;69.23;101090.84;5029505;28;20030;-48
2022/09/01 05:50:41;;;;;;;15.88;7.47;;;;;;;17.25;70.49;101101.41;5031968;28;20060;-49
2022/09/01 05:53:16;;;;;;;10.15;6.90;;;;;;;17.08;70.68;101095.97;5034715;28;20033;-49
2022/09/01 05:55:45;;;;;;;12.43;7.10;;;;;;;17.25;69.77;101092.47;5033628;28;20026;-49
2022/09/01 05:58:13;;;;;;;14.00;7.30;;;;;;;17.27;69.64;101093.06;5034991;28;20130;-49
2022/09/01 06:00:48;;;;;;;9.02;5.93;;;;;;;17.21;69.73;101096.72;5034078;28;20029;-51
2022/09/01 06:03:16;;;;;;;11.77;7.43;;;;;;;17.13;69.80;101098.75;5032801;28;20095;-49
2022/09/01 06:05:51;;;;;;;12.65;7.15;;;;;;;17.26;69.29;101096.81;5034881;28;20282;-50
2022/09/01 06:08:20;;;;;;;10.55;7.53;;;;;;;17.27;69.14;101095.75;5033775;28;20036;-48
2022/09/01 06:10:47;;;;;;;12.77;7.57;;;;;;;17.23;69.06;101100.84;5034535;28;20082;-49
2022/09/01 06:13:14;;;;;;;14.07;7.38;;;;;;;17.02;69.82;101099.63;5034192;28;20018;-49
2022/09/01 06:15:41;;;;;;;15.98;8.10;;;;;;;16.99;70.41;101094.72;5039465;28;20383;-49
2022/09/01 06:18:11;;;;;;;12.70;7.47;;;;;;;17.11;69.79;101095.47;5054852;28;20028;-49
2022/09/01 06:20:45;;;;;;;14.63;7.45;;;;;;;17.12;69.58;101091.72;5051236;28;20107;-50
2022/09/01 06:23:14;;;;;;;17.30;8.57;;;;;;;17.00;69.64;101093.66;5034832;28;20391;-50
2022/09/01 06:25:45;;;;;;;13.40;8.20;;;;;;;17.15;69.97;101091.22;5052873;28;20078;-50
2022/09/01 06:28:17;;;;;;;12.70;7.28;;;;;;;17.10;70.04;101093.84;5035472;28;20041;-49
2022/09/01 06:30:44;;;;;;;11.55;7.43;;;;;;;16.96;70.66;101084.38;5038379;28;20040;-50
2022/09/01 06:33:12;;;;;;;12.95;7.82;;;;;;;17.02;70.99;101085.28;5054389;28;20494;-52
2022/09/01 06:35:45;;;;;;;15.32;8.05;;;;;;;17.13;70.78;101082.53;5053168;28;20031;-50
2022/09/01 06:38:18;;;;;;;15.98;8.20;;;;;;;17.08;70.58;101087.84;5054766;28;20511;-49
2022/09/01 06:40:45;;;;;;;15.70;8.18;;;;;;;16.98;70.61;101086.84;5052873;28;20499;-49
2022/09/01 06:43:12;;;;;;;16.77;8.60;;;;;;;17.05;71.02;101090.22;5052331;28;20368;-49
2022/09/01 06:45:41;;;;;;;13.52;9.23;;;;;;;16.93;71.25;101089.44;5054288;28;20086;-49
2022/09/01 06:48:08;;;;;;;17.17;8.38;;;;;;;17.02;71.25;101083.41;5052851;28;20395;-49
2022/09/01 06:50:38;;;;;;;15.15;8.80;;;;;;;16.98;71.38;101078.72;5054498;28;20455;-49
2022/09/01 06:53:17;;;;;;;14.05;8.52;;;;;;;16.95;70.95;101081.94;5052199;28;20035;-49
2022/09/01 06:55:47;;;;;;;17.40;8.93;;;;;;;16.83;71.20;101087.38;5054000;28;20087;-49
2022/09/01 06:58:14;;;;;;;12.75;8.10;;;;;;;17.00;70.74;101087.44;5037260;28;20049;-49
2022/09/01 07:00:42;;;;;;;12.50;8.38;;;;;;;16.93;70.14;101087.56;5040685;28;20028;-51
2022/09/01 07:03:12;;;;;;;15.25;8.43;;;;;;;16.68;70.81;101084.34;5037168;28;20557;-52
2022/09/01 07:05:41;;;;;;;14.05;8.75;;;;;;;16.77;70.41;101086.47;5034076;28;20406;-51
2022/09/01 07:08:09;;;;;;;13.15;8.73;;;;;;;16.66;70.29;101083.75;5032944;28;20554;-52
2022/09/01 07:10:45;;;;;;;11.98;8.32;;;;;;;16.66;70.52;101083.75;5033691;28;20118;-51
2022/09/01 07:13:18;;;;;;;14.57;9.35;;;;;;;16.69;70.07;101086.81;5032578;28;20029;-52
2022/09/01 07:15:48;;;;;;;14.52;9.20;;;;;;;16.58;70.61;101090.38;5033637;28;20060;-52
2022/09/01 07:18:21;;;;;;;16.98;9.45;;;;;;;16.64;71.10;101086.69;5044607;28;20037;-51
2022/09/01 07:20:48;;;;;;;18.73;9.07;;;;;;;16.74;70.74;101080.72;5033852;28;20021;-52
2022/09/01 07:23:19;;;;;;;15.45;9.23;;;;;;;16.58;71.50;101074.97;5040607;28;20037;-51
2022/09/01 07:25:47;;;;;;;14.30;9.05;;;;;;;16.42;72.43;101077.59;5053100;28;20021;-51
2022/09/01 07:28:16;;;;;;;15.20;9.85;;;;;;;16.52;72.03;101075.94;5040395;28;20140;-51
2022/09/01 07:30:47;;;;;;;17.30;9.23;;;;;;;16.48;72.61;101077.47;5032713;28;20029;-51
2022/09/01 07:33:15;;;;;;;15.38;8.73;;;;;;;16.41;72.93;101073.25;5031502;28;20025;-50
2022/09/01 07:35:42;;;;;;;12.90;8.13;;;;;;;16.43;72.84;101081.94;5031452;28;20068;-51
2022/09/01 07:38:09;;;;;;;18.50;9.35;;;;;;;16.50;72.51;101083.47;5034523;28;20022;-52
2022/09/01 07:40:41;;;;;;;15.02;8.73;;;;;;;16.40;73.06;101090.53;5038167;28;20402;-51
2022/09/01 07:43:14;;;;;;;17.60;9.40;;;;;;;16.35;72.83;101085.84;5050009;28;20095;-50
2022/09/01 07:45:46;;;;;;;17.48;9.30;;;;;;;16.30;73.29;101093.84;5049214;28;20445;-51
2022/09/01 07:48:13;;;;;;;14.07;8.75;;;;;;;16.25;73.68;101091.84;5053442;28;20468;-52
2022/09/01 07:50:46;;;;;;;14.68;9.18;;;;;;;16.29;73.85;101086.81;5044365;28;20544;-51
2022/09/01 07:53:17;;;;;;;13.68;9.30;;;;;;;16.33;73.58;101088.78;5040984;28;20032;-49
2022/09/01 07:55:45;;;;;;;14.27;8.27;;;;;;;16.43;72.86;101090.88;5051196;28;20036;-51
2022/09/01 07:58:13;;;;;;;16.75;8.80;;;;;;;16.30;73.07;101091.13;5053112;28;20027;-49
2022/09/01 08:00:45;;;;;;;14.50;8.65;;;;;;;16.33;72.64;101093.38;5050372;28;20033;-52
2022/09/01 08:03:16;;;;;;;17.40;8.77;;;;;;;16.43;72.42;101093.56;5032881;28;20077;-51
2022/09/01 08:05:43;;;;;;;20.80;8.68;;;;;;;16.50;72.01;101090.75;5047558;28;20112;-50
2022/09/01 08:08:09;;;;;;;16.40;8.07;;;;;;;16.36;72.22;101099.09;5052426;28;20041;-51
2022/09/01 08:10:44;;;;;;;18.60;8.60;;;;;;;16.35;72.42;101099.34;5052868;28;20418;-52
2022/09/01 08:13:10;;;;;;;12.98;7.57;;;;;;;16.31;72.36;101099.00;5050204;28;20108;-50
2022/09/01 08:15:39;;;;;;;18.48;8.98;;;;;;;16.36;72.27;101096.41;5039912;28;20030;-48
2022/09/01 08:18:06;;;;;;;14.50;7.95;;;;;;;16.46;71.80;101093.09;5032281;28;20025;-51
2022/09/01 08:20:38;;;;;;;15.38;8.68;;;;;;;16.37;72.29;101095.34;5039775;28;20029;-51
2022/09/01 08:23:05;;;;;;;15.02;8.50;;;;;;;16.34;72.21;101098.53;5051754;28;20025;-51
2022/09/01 08:25:34;;;;;;;14.88;8.48;;;;;;;16.16;72.66;101096.00;5047175;28;20037;-52
2022/09/01 08:28:01;;;;;;;12.35;7.88;;;;;;;16.14;72.73;101094.56;5052593;28;20086;-51
2022/09/01 08:30:28;;;;;;;19.85;7.85;;;;;;;16.29;72.10;101082.22;5051113;28;20481;-50
2022/09/01 08:32:56;;;;;;;10.27;8.15;;;;;;;16.27;72.16;101081.66;5051996;28;20051;-51
2022/09/01 08:35:22;;;;;;;12.95;7.88;;;;;;;16.19;72.36;101090.09;5051163;28;20440;-51
2022/09/01 08:37:49;;;;;;;17.58;8.32;;;;;;;16.07;72.91;101090.13;5052088;28;20438;-51
2022/09/01 08:40:21;;;;;;;15.00;8.93;;;;;;;16.09;73.14;101077.19;5048308;28;20475;-51
2022/09/01 08:43:06;;;;;;;15.75;8.75;;;;;;;16.23;72.70;101076.94;5032076;28;20040;-52
2022/09/01 08:45:57;;;;;;;15.80;9.68;;;;;;;16.09;72.65;101079.06;5034387;28;20592;-50
2022/09/01 08:48:29;;;;;;;14.88;8.82;;;;;;;15.98;73.47;101079.91;5031446;28;20033;-49
2022/09/01 08:51:25;;;;;;;14.07;9.05;;;;;;;16.12;73.53;101073.22;5043285;28;20200;-48
2022/09/01 08:54:10;;;;;;;14.38;8.90;;;;;;;15.95;73.71;101059.63;5045290;28;20487;-49
2022/09/01 08:56:37;;;;;;;19.27;9.00;;;;;;;16.00;73.88;101081.31;5032180;28;20033;-49
2022/09/01 08:59:08;;;;;;;13.85;8.52;;;;;;;16.02;74.01;101073.81;5044313;28;20141;-48
2022/09/01 09:01:59;;;;;;;19.33;9.73;;;;;;;15.93;74.32;101072.50;5049683;28;20040;-49
2022/09/01 09:04:38;;;;;;;11.98;7.70;;;;;;;15.93;74.97;101071.69;5052030;28;20079;-49
2022/09/01 09:07:37;;;;;;;15.48;8.68;;;;;;;16.05;74.79;101075.22;5046853;28;20026;-51
2022/09/01 09:10:23;;;;;;;16.20;9.15;;;;;;;16.00;74.77;101069.72;5032092;28;20029;-49
2022/09/01 09:13:03;;;;;;;15.63;8.38;;;;;;;16.02;74.85;101065.69;5048440;28;20036;-50
2022/09/01 09:15:52;;;;;;;14.20;8.02;;;;;;;16.00;75.27;101059.72;5031657;28;20452;-51
2022/09/01 09:18:27;;;;;;;11.85;7.60;;;;;;;15.96;75.69;101055.03;5031649;28;20044;-51
2022/09/01 09:20:53;;;;;;;;;;;;;;;15.91;75.93;101049.50;5047675;28;20043;-49
2022/09/01 09:23:29;;;;;;;13.45;7.07;;;;;;;15.98;75.33;101059.13;5049610;28;19913;-51
2022/09/01 09:25:56;;;;;;;15.30;8.55;;;;;;;15.84;75.79;101055.03;5045410;28;20029;-51
2022/09/01 09:28:22;;;;;;;15.60;8.50;;;;;;;15.79;76.71;101055.75;5031648;28;20042;-49
2022/09/01 09:30:48;;;;;;;13.23;8.80;;;;;;;15.72;76.71;101060.44;5031539;28;20545;-49
2022/09/01 09:33:37;;;;;;;16.20;8.23;;;;;;;15.76;76.44;101063.47;5031424;28;20032;-49
2022/09/01 09:36:18;;;;;;;15.88;8.50;;;;;;;15.67;76.68;101073.81;5030885;28;20018;-49
2022/09/01 09:38:45;;;;;;;17.60;7.82;;;;;;;15.76;76.40;101071.56;5031180;28;20076;-50
2022/09/01 09:41:20;;;;;;;13.38;8.02;;;;;;;15.84;75.78;101072.06;5031394;28;20029;-48
2022/09/01 09:43:58;;;;;;;;;;;;;;;15.84;75.75;101066.66;5047363;28;20469;-48
2022/09/01 09:46:34;;;;;;;13.10;8.00;;;;;;;15.68;76.25;101061.16;5031421;28;19913;-48
2022/09/01 09:49:13;;;;;;;16.95;8.73;;;;;;;15.40;77.60;101057.22;5030966;28;20478;-48
2022/09/01 09:51:42;;;;;;;16.05;8.98;;;;;;;15.55;76.71;101054.91;5031556;28;20112;-48
2022/09/01 09:54:25;;;;;;;14.40;7.32;;;;;;;15.68;76.16;101061.16;5030294;28;20025;-50
2022/09/01 09:57:14;;;;;;;16.17;8.07;;;;;;;15.66;76.03;101065.97;5042447;28;20025;-49
2022/09/01 09:59:46;;;;;;;15.27;8.80;;;;;;;15.73;76.01;101067.47;5034842;28;20513;-48
2022/09/01 10:02:31;;;;;;;19.05;8.10;;;;;;;15.66;75.82;101069.47;5031912;28;20032;-49
2022/09/01 10:05:00;;;;;;;16.00;8.93;;;;;;;15.48;76.82;101070.34;5031328;28;20018;-49
2022/09/01 10:07:36;;;;;;;19.77;9.35;;;;;;;15.48;76.69;101072.22;5031443;28;20032;-49
2022/09/01 10:10:25;;;;;;;20.77;8.38;;;;;;;15.50;76.23;101070.13;5030941;28;20073;-49
2022/09/01 10:12:56;;;;;;;18.23;8.13;;;;;;;15.50;76.38;101078.22;5031015;28;20044;-50
2022/09/01 10:15:28;;;;;;;19.83;8.77;;;;;;;15.38;77.04;101080.91;5046291;28;20025;-50
2022/09/01 10:18:01;;;;;;;14.45;8.35;;;;;;;15.32;77.14;101079.13;5050245;28;20078;-49
2022/09/01 10:20:27;;;;;;;19.52;9.10;;;;;;;15.46;76.20;101080.56;5050962;28;20044;-49
2022/09/01 10:22:55;;;;;;;19.08;8.93;;;;;;;15.45;76.30;101073.53;5050540;28;20528;-48
2022/09/01 10:25:31;;;;;;;16.45;7.88;;;;;;;15.47;76.07;101068.72;5051053;28;20411;-50
2022/09/01 10:28:08;;;;;;;15.32;8.07;;;;;;;15.59;75.58;101066.84;5051020;28;20047;-48
2022/09/01 10:30:41;;;;;;;19.77;8.95;;;;;;;15.53;76.04;101070.47;5051446;28;20036;-49
2022/09/01 10:33:08;;;;;;;19.77;8.20;;;;;;;15.56;75.52;101071.91;5051749;28;20463;-49
2022/09/01 10:35:39;;;;;;;16.23;8.40;;;;;;;15.62;75.55;101070.97;5050607;28;20025;-52
2022/09/01 10:38:09;;;;;;;19.20;8.30;;;;;;;15.69;75.51;101070.88;5053986;28;20017;-52
2022/09/01 10:40:44;;;;;;;13.52;7.82;;;;;;;15.45;76.87;101070.00;5054691;28;20140;-49
2022/09/01 10:43:28;;;;;;;20.08;8.82;;;;;;;15.38;77.18;101070.13;5054302;28;20384;-50
2022/09/01 10:45:55;;;;;;;23.25;9.35;;;;;;;15.41;77.18;101068.81;5034211;28;20040;-53
2022/09/01 10:48:22;;;;;;;21.00;8.77;;;;;;;15.17;78.47;101071.47;5048129;28;20053;-48
2022/09/01 10:51:15;;;;;;;17.90;9.52;;;;;;;15.40;77.83;101083.38;5054457;28;20032;-49
2022/09/01 10:53:46;;;;;;;23.55;9.70;;;;;;;15.41;77.80;101085.81;5015495;28;20041;-49
2022/09/01 10:56:35;;;;;;;21.67;11.27;;;;;;;15.42;77.70;101082.06;5037463;28;20155;-49
2022/09/01 10:59:06;;;;;;;16.38;9.90;;;;;;;15.38;77.75;101082.75;5047765;28;20041;-51
2022/09/01 11:02:04;;;;;;;17.77;9.15;;;;;;;15.42;77.45;101089.34;5048031;28;20040;-51
2022/09/01 11:04:31;;;;;;;19.23;9.10;;;;;;;15.30;77.58;101089.31;5039794;28;20033;-51
2022/09/01 11:07:01;;;;;;;22.23;9.68;;;;;;;15.13;78.03;101091.84;5051209;28;20021;-48
2022/09/01 11:09:30;;;;;;;21.73;10.23;;;;;;;15.19;78.24;101087.41;5034098;28;20014;-51
2022/09/01 11:12:24;;;;;;;21.92;10.98;;;;;;;15.28;77.89;101094.13;5034647;28;20377;-48
2022/09/01 11:14:54;;;;;;;16.42;9.50;;;;;;;15.20;77.83;101080.97;5034273;28;20032;-49
2022/09/01 11:17:48;;;;;;;19.40;9.45;;;;;;;15.31;77.31;101074.78;5038585;28;20033;-50
2022/09/01 11:20:36;;;;;;;20.65;11.00;;;;;;;15.19;77.71;101077.44;5053715;28;20054;-49
2022/09/01 11:23:22;;;;;;;21.45;9.82;;;;;;;15.14;77.70;101071.94;5036655;28;20518;-48
2022/09/01 11:25:51;;;;;;;20.23;9.77;;;;;;;15.09;77.72;101077.19;5034243;28;20030;-49
2022/09/01 11:28:23;;;;;;;17.58;9.82;;;;;;;15.19;77.58;101072.06;5045081;28;20044;-49
2022/09/01 11:31:07;;;;;;;16.05;9.80;;;;;;;15.09;77.60;101076.38;5041967;28;20086;-49
2022/09/01 11:33:47;;;;;;;19.33;9.25;;;;;;;14.99;77.62;101080.47;5037657;28;20026;-48
2022/09/01 11:36:18;;;;;;;18.40;9.40;;;;;;;14.97;78.09;101087.13;5047749;28;20483;-52
2022/09/01 11:38:50;;;;;;;18.50;9.88;;;;;;;15.14;77.53;101087.28;5042790;28;20025;-50
2022/09/01 11:41:42;;;;;;;17.95;9.95;;;;;;;14.88;77.84;101086.63;5041082;28;20044;-49